Terminal Aerodrome Forecast
Issued by NWS Amarillo, TX

Home | Current Version | Previous Version | Text Only | Print | Product List | Glossary On
Versions: 1 2 3 4 5 6 7 8 9 10 11 12 13 14 15 16 17 18 19 20
000
FTUS44 KAMA 271300 AAA
TAFAMA
TAF AMD
KAMA 271311Z 2713/2812 04015G22KT 5SM RA BR OVC006
     FM271800 02025G35KT 6SM -RA BR OVC010
     FM280000 36016KT 6SM -RA BR OVC008=

USA.gov is the U.S. government's official web portal to all federal, state and local government web resources and services.